sensor_id;sensor_type;location;lat;lon;timestamp;P1;durP1;ratioP1;P2;durP2;ratioP2
46006;SDS011;31738;50.188;8.524;2023-01-26T00:00:30;42.72;;;13.90;;
46006;SDS011;31738;50.188;8.524;2023-01-26T00:03:00;41.08;;;14.02;;
46006;SDS011;31738;50.188;8.524;2023-01-26T00:05:39;46.30;;;14.23;;
46006;SDS011;31738;50.188;8.524;2023-01-26T00:08:09;40.33;;;13.45;;
46006;SDS011;31738;50.188;8.524;2023-01-26T00:10:54;42.83;;;13.88;;
46006;SDS011;31738;50.188;8.524;2023-01-26T00:16:47;38.47;;;13.40;;
46006;SDS011;31738;50.188;8.524;2023-01-26T00:19:18;45.80;;;14.63;;
46006;SDS011;31738;50.188;8.524;2023-01-26T00:21:58;57.85;;;15.68;;
46006;SDS011;31738;50.188;8.524;2023-01-26T00:24:40;45.20;;;15.73;;
46006;SDS011;31738;50.188;8.524;2023-01-26T00:27:18;47.70;;;15.10;;
46006;SDS011;31738;50.188;8.524;2023-01-26T00:30:02;42.90;;;14.55;;
46006;SDS011;31738;50.188;8.524;2023-01-26T00:32:34;42.35;;;14.18;;
46006;SDS011;31738;50.188;8.524;2023-01-26T00:35:16;43.17;;;14.50;;
46006;SDS011;31738;50.188;8.524;2023-01-26T00:37:59;45.00;;;13.85;;
46006;SDS011;31738;50.188;8.524;2023-01-26T00:40:35;40.05;;;13.23;;
46006;SDS011;31738;50.188;8.524;2023-01-26T00:43:12;52.97;;;15.35;;
46006;SDS011;31738;50.188;8.524;2023-01-26T00:45:57;46.40;;;14.30;;
46006;SDS011;31738;50.188;8.524;2023-01-26T00:48:34;40.85;;;14.27;;
46006;SDS011;31738;50.188;8.524;2023-01-26T00:51:05;39.85;;;13.95;;
46006;SDS011;31738;50.188;8.524;2023-01-26T00:53:36;41.42;;;12.93;;
46006;SDS011;31738;50.188;8.524;2023-01-26T00:56:02;34.22;;;12.10;;
46006;SDS011;31738;50.188;8.524;2023-01-26T00:58:28;40.33;;;13.48;;
46006;SDS011;31738;50.188;8.524;2023-01-26T01:04:05;38.47;;;12.88;;
46006;SDS011;31738;50.188;8.524;2023-01-26T01:06:46;34.95;;;12.05;;
46006;SDS011;31738;50.188;8.524;2023-01-26T01:09:20;29.98;;;10.70;;
46006;SDS011;31738;50.188;8.524;2023-01-26T01:11:50;33.13;;;11.80;;
46006;SDS011;31738;50.188;8.524;2023-01-26T01:14:27;32.95;;;11.07;;
46006;SDS011;31738;50.188;8.524;2023-01-26T01:17:05;29.98;;;11.30;;
46006;SDS011;31738;50.188;8.524;2023-01-26T01:19:53;30.38;;;10.30;;
46006;SDS011;31738;50.188;8.524;2023-01-26T01:22:22;32.33;;;11.63;;
46006;SDS011;31738;50.188;8.524;2023-01-26T01:25:15;30.05;;;10.57;;
46006;SDS011;31738;50.188;8.524;2023-01-26T01:27:44;26.65;;;9.68;;
46006;SDS011;31738;50.188;8.524;2023-01-26T01:30:15;27.88;;;10.00;;
46006;SDS011;31738;50.188;8.524;2023-01-26T01:32:50;24.35;;;9.70;;
46006;SDS011;31738;50.188;8.524;2023-01-26T01:35:28;25.05;;;9.57;;
46006;SDS011;31738;50.188;8.524;2023-01-26T01:38:03;23.75;;;8.20;;
46006;SDS011;31738;50.188;8.524;2023-01-26T01:44:37;21.45;;;7.53;;
46006;SDS011;31738;50.188;8.524;2023-01-26T01:47:09;17.77;;;7.53;;
46006;SDS011;31738;50.188;8.524;2023-01-26T01:49:44;17.70;;;6.90;;
46006;SDS011;31738;50.188;8.524;2023-01-26T01:52:14;14.00;;;6.10;;
46006;SDS011;31738;50.188;8.524;2023-01-26T01:58:03;15.23;;;6.10;;
46006;SDS011;31738;50.188;8.524;2023-01-26T02:00:35;14.77;;;6.00;;
46006;SDS011;31738;50.188;8.524;2023-01-26T02:06:46;14.00;;;5.80;;
46006;SDS011;31738;50.188;8.524;2023-01-26T02:09:19;15.65;;;5.50;;
46006;SDS011;31738;50.188;8.524;2023-01-26T02:12:29;14.82;;;6.03;;
46006;SDS011;31738;50.188;8.524;2023-01-26T02:15:14;18.98;;;7.75;;
46006;SDS011;31738;50.188;8.524;2023-01-26T02:17:53;14.07;;;6.18;;
46006;SDS011;31738;50.188;8.524;2023-01-26T02:20:47;14.07;;;6.38;;
46006;SDS011;31738;50.188;8.524;2023-01-26T02:23:37;13.10;;;6.43;;
46006;SDS011;31738;50.188;8.524;2023-01-26T02:28:48;10.55;;;5.25;;
46006;SDS011;31738;50.188;8.524;2023-01-26T02:31:18;10.55;;;4.75;;
46006;SDS011;31738;50.188;8.524;2023-01-26T02:33:57;12.52;;;5.35;;
46006;SDS011;31738;50.188;8.524;2023-01-26T02:36:28;12.73;;;5.22;;
46006;SDS011;31738;50.188;8.524;2023-01-26T02:39:21;11.10;;;4.88;;
46006;SDS011;31738;50.188;8.524;2023-01-26T02:41:57;11.65;;;5.93;;
46006;SDS011;31738;50.188;8.524;2023-01-26T02:44:51;13.60;;;5.22;;
46006;SDS011;31738;50.188;8.524;2023-01-26T02:47:24;12.50;;;5.88;;
46006;SDS011;31738;50.188;8.524;2023-01-26T02:49:53;12.23;;;5.43;;
46006;SDS011;31738;50.188;8.524;2023-01-26T02:52:21;12.27;;;5.78;;
46006;SDS011;31738;50.188;8.524;2023-01-26T02:54:57;12.88;;;5.80;;
46006;SDS011;31738;50.188;8.524;2023-01-26T02:57:58;15.32;;;5.72;;
46006;SDS011;31738;50.188;8.524;2023-01-26T03:00:35;15.35;;;6.35;;
46006;SDS011;31738;50.188;8.524;2023-01-26T03:03:28;13.50;;;6.15;;
46006;SDS011;31738;50.188;8.524;2023-01-26T03:06:13;13.85;;;6.35;;
46006;SDS011;31738;50.188;8.524;2023-01-26T03:08:47;15.13;;;6.32;;
46006;SDS011;31738;50.188;8.524;2023-01-26T03:11:22;16.05;;;6.80;;
46006;SDS011;31738;50.188;8.524;2023-01-26T03:14:11;14.02;;;6.20;;
46006;SDS011;31738;50.188;8.524;2023-01-26T03:16:50;14.20;;;6.30;;
46006;SDS011;31738;50.188;8.524;2023-01-26T03:19:23;16.65;;;5.70;;
46006;SDS011;31738;50.188;8.524;2023-01-26T03:22:09;17.70;;;6.28;;
46006;SDS011;31738;50.188;8.524;2023-01-26T03:24:59;16.17;;;5.93;;
46006;SDS011;31738;50.188;8.524;2023-01-26T03:27:50;14.30;;;6.07;;
46006;SDS011;31738;50.188;8.524;2023-01-26T03:30:20;12.93;;;5.82;;
46006;SDS011;31738;50.188;8.524;2023-01-26T03:33:03;14.70;;;5.38;;
46006;SDS011;31738;50.188;8.524;2023-01-26T03:35:35;11.43;;;5.10;;
46006;SDS011;31738;50.188;8.524;2023-01-26T03:38:10;11.95;;;5.55;;
46006;SDS011;31738;50.188;8.524;2023-01-26T03:40:53;13.98;;;5.35;;
46006;SDS011;31738;50.188;8.524;2023-01-26T03:43:43;10.98;;;4.97;;
46006;SDS011;31738;50.188;8.524;2023-01-26T03:46:31;12.90;;;5.38;;
46006;SDS011;31738;50.188;8.524;2023-01-26T03:49:25;12.85;;;5.18;;
46006;SDS011;31738;50.188;8.524;2023-01-26T03:52:15;14.25;;;5.30;;
46006;SDS011;31738;50.188;8.524;2023-01-26T03:55:07;12.38;;;5.28;;
46006;SDS011;31738;50.188;8.524;2023-01-26T03:57:59;12.23;;;5.72;;
46006;SDS011;31738;50.188;8.524;2023-01-26T04:00:24;12.73;;;5.75;;
46006;SDS011;31738;50.188;8.524;2023-01-26T04:02:56;11.57;;;5.03;;
46006;SDS011;31738;50.188;8.524;2023-01-26T04:05:42;15.98;;;6.10;;
46006;SDS011;31738;50.188;8.524;2023-01-26T04:08:42;12.85;;;5.80;;
46006;SDS011;31738;50.188;8.524;2023-01-26T04:11:12;11.93;;;5.38;;
46006;SDS011;31738;50.188;8.524;2023-01-26T04:13:44;13.93;;;5.10;;
46006;SDS011;31738;50.188;8.524;2023-01-26T04:16:31;14.50;;;5.40;;
46006;SDS011;31738;50.188;8.524;2023-01-26T04:19:25;12.00;;;4.97;;
46006;SDS011;31738;50.188;8.524;2023-01-26T04:22:12;13.73;;;5.40;;
46006;SDS011;31738;50.188;8.524;2023-01-26T04:24:49;13.23;;;5.80;;
46006;SDS011;31738;50.188;8.524;2023-01-26T04:27:18;12.98;;;6.20;;
46006;SDS011;31738;50.188;8.524;2023-01-26T04:29:48;12.25;;;5.53;;
46006;SDS011;31738;50.188;8.524;2023-01-26T04:36:06;17.45;;;6.93;;
46006;SDS011;31738;50.188;8.524;2023-01-26T04:38:40;11.30;;;5.70;;
46006;SDS011;31738;50.188;8.524;2023-01-26T04:45:18;11.45;;;5.38;;
46006;SDS011;31738;50.188;8.524;2023-01-26T04:47:45;12.32;;;5.30;;
46006;SDS011;31738;50.188;8.524;2023-01-26T04:50:18;11.35;;;5.05;;
46006;SDS011;31738;50.188;8.524;2023-01-26T04:52:57;9.40;;;4.72;;
46006;SDS011;31738;50.188;8.524;2023-01-26T04:55:31;11.68;;;5.70;;
46006;SDS011;31738;50.188;8.524;2023-01-26T05:01:56;12.85;;;5.05;;
46006;SDS011;31738;50.188;8.524;2023-01-26T05:04:28;12.00;;;5.30;;
46006;SDS011;31738;50.188;8.524;2023-01-26T05:06:54;13.85;;;5.43;;
46006;SDS011;31738;50.188;8.524;2023-01-26T05:09:27;11.30;;;5.45;;
46006;SDS011;31738;50.188;8.524;2023-01-26T05:12:10;11.77;;;5.18;;
46006;SDS011;31738;50.188;8.524;2023-01-26T05:15:28;11.70;;;5.25;;
46006;SDS011;31738;50.188;8.524;2023-01-26T05:18:03;10.20;;;4.90;;
46006;SDS011;31738;50.188;8.524;2023-01-26T05:20:57;12.30;;;5.22;;
46006;SDS011;31738;50.188;8.524;2023-01-26T05:23:46;11.20;;;5.00;;
46006;SDS011;31738;50.188;8.524;2023-01-26T05:26:29;10.85;;;5.10;;
46006;SDS011;31738;50.188;8.524;2023-01-26T05:29:11;12.43;;;5.28;;
46006;SDS011;31738;50.188;8.524;2023-01-26T05:31:41;11.13;;;5.32;;
46006;SDS011;31738;50.188;8.524;2023-01-26T05:34:12;9.82;;;5.10;;
46006;SDS011;31738;50.188;8.524;2023-01-26T05:36:44;11.43;;;4.72;;
46006;SDS011;31738;50.188;8.524;2023-01-26T05:39:13;10.50;;;5.00;;
46006;SDS011;31738;50.188;8.524;2023-01-26T05:41:39;10.38;;;4.55;;
46006;SDS011;31738;50.188;8.524;2023-01-26T05:47:06;12.52;;;5.50;;
46006;SDS011;31738;50.188;8.524;2023-01-26T05:49:33;10.07;;;4.22;;
46006;SDS011;31738;50.188;8.524;2023-01-26T05:52:06;9.73;;;4.82;;
46006;SDS011;31738;50.188;8.524;2023-01-26T05:54:39;11.40;;;5.03;;
46006;SDS011;31738;50.188;8.524;2023-01-26T05:57:12;12.35;;;5.65;;
46006;SDS011;31738;50.188;8.524;2023-01-26T05:59:55;11.43;;;5.47;;
46006;SDS011;31738;50.188;8.524;2023-01-26T06:02:27;12.38;;;5.72;;
46006;SDS011;31738;50.188;8.524;2023-01-26T06:04:59;13.38;;;5.60;;
46006;SDS011;31738;50.188;8.524;2023-01-26T06:07:46;10.88;;;5.65;;
46006;SDS011;31738;50.188;8.524;2023-01-26T06:10:33;11.20;;;5.10;;
46006;SDS011;31738;50.188;8.524;2023-01-26T06:13:34;11.75;;;5.72;;
46006;SDS011;31738;50.188;8.524;2023-01-26T06:16:16;12.40;;;5.78;;
46006;SDS011;31738;50.188;8.524;2023-01-26T06:18:41;13.63;;;5.90;;
46006;SDS011;31738;50.188;8.524;2023-01-26T06:21:07;13.20;;;6.65;;
46006;SDS011;31738;50.188;8.524;2023-01-26T06:23:33;13.05;;;6.35;;
46006;SDS011;31738;50.188;8.524;2023-01-26T06:26:01;15.48;;;5.90;;
46006;SDS011;31738;50.188;8.524;2023-01-26T06:28:33;13.68;;;6.70;;
46006;SDS011;31738;50.188;8.524;2023-01-26T06:31:01;13.40;;;6.30;;
46006;SDS011;31738;50.188;8.524;2023-01-26T06:33:32;13.60;;;7.28;;
46006;SDS011;31738;50.188;8.524;2023-01-26T06:36:09;11.65;;;5.82;;
46006;SDS011;31738;50.188;8.524;2023-01-26T06:38:38;13.80;;;6.10;;
46006;SDS011;31738;50.188;8.524;2023-01-26T06:41:09;12.30;;;6.43;;
46006;SDS011;31738;50.188;8.524;2023-01-26T06:43:34;12.88;;;6.43;;
46006;SDS011;31738;50.188;8.524;2023-01-26T06:46:01;11.48;;;6.18;;
46006;SDS011;31738;50.188;8.524;2023-01-26T06:48:29;14.88;;;6.47;;
46006;SDS011;31738;50.188;8.524;2023-01-26T06:50:56;10.75;;;6.25;;
46006;SDS011;31738;50.188;8.524;2023-01-26T06:53:32;11.43;;;6.35;;
46006;SDS011;31738;50.188;8.524;2023-01-26T06:56:30;12.50;;;6.45;;
46006;SDS011;31738;50.188;8.524;2023-01-26T06:59:10;12.02;;;6.40;;
46006;SDS011;31738;50.188;8.524;2023-01-26T07:02:15;12.13;;;6.50;;
46006;SDS011;31738;50.188;8.524;2023-01-26T07:04:45;11.82;;;6.75;;
46006;SDS011;31738;50.188;8.524;2023-01-26T07:07:11;14.02;;;7.53;;
46006;SDS011;31738;50.188;8.524;2023-01-26T07:09:36;13.73;;;7.05;;
46006;SDS011;31738;50.188;8.524;2023-01-26T07:12:02;14.85;;;7.63;;
46006;SDS011;31738;50.188;8.524;2023-01-26T07:14:27;14.02;;;7.10;;
46006;SDS011;31738;50.188;8.524;2023-01-26T07:16:53;11.50;;;6.57;;
46006;SDS011;31738;50.188;8.524;2023-01-26T07:19:18;12.10;;;6.80;;
46006;SDS011;31738;50.188;8.524;2023-01-26T07:21:44;12.82;;;6.75;;
46006;SDS011;31738;50.188;8.524;2023-01-26T07:24:11;13.68;;;6.43;;
46006;SDS011;31738;50.188;8.524;2023-01-26T07:26:37;14.48;;;7.38;;
46006;SDS011;31738;50.188;8.524;2023-01-26T07:29:02;12.60;;;6.50;;
46006;SDS011;31738;50.188;8.524;2023-01-26T07:31:27;11.73;;;6.60;;
46006;SDS011;31738;50.188;8.524;2023-01-26T07:33:53;13.10;;;6.75;;
46006;SDS011;31738;50.188;8.524;2023-01-26T07:36:19;12.00;;;6.90;;
46006;SDS011;31738;50.188;8.524;2023-01-26T07:38:44;12.50;;;6.75;;
46006;SDS011;31738;50.188;8.524;2023-01-26T07:41:10;11.13;;;6.25;;
46006;SDS011;31738;50.188;8.524;2023-01-26T07:43:37;12.68;;;6.72;;
46006;SDS011;31738;50.188;8.524;2023-01-26T07:46:07;13.40;;;6.45;;
46006;SDS011;31738;50.188;8.524;2023-01-26T07:48:34;13.30;;;6.70;;
46006;SDS011;31738;50.188;8.524;2023-01-26T07:51:01;12.48;;;7.03;;
46006;SDS011;31738;50.188;8.524;2023-01-26T07:53:27;13.68;;;7.32;;
46006;SDS011;31738;50.188;8.524;2023-01-26T07:56:03;14.50;;;6.97;;
46006;SDS011;31738;50.188;8.524;2023-01-26T07:58:30;14.27;;;7.18;;
46006;SDS011;31738;50.188;8.524;2023-01-26T08:01:17;13.55;;;7.07;;
46006;SDS011;31738;50.188;8.524;2023-01-26T08:03:51;14.18;;;6.93;;
46006;SDS011;31738;50.188;8.524;2023-01-26T08:06:18;13.10;;;6.32;;
46006;SDS011;31738;50.188;8.524;2023-01-26T08:08:44;15.07;;;7.68;;
46006;SDS011;31738;50.188;8.524;2023-01-26T08:11:15;14.55;;;7.85;;
46006;SDS011;31738;50.188;8.524;2023-01-26T08:13:43;15.50;;;7.07;;
46006;SDS011;31738;50.188;8.524;2023-01-26T08:16:09;14.75;;;7.45;;
46006;SDS011;31738;50.188;8.524;2023-01-26T08:18:47;13.18;;;7.20;;
46006;SDS011;31738;50.188;8.524;2023-01-26T08:21:17;12.93;;;6.72;;
46006;SDS011;31738;50.188;8.524;2023-01-26T08:23:47;12.18;;;7.10;;
46006;SDS011;31738;50.188;8.524;2023-01-26T08:26:13;12.98;;;7.25;;
46006;SDS011;31738;50.188;8.524;2023-01-26T08:28:38;13.68;;;6.90;;
46006;SDS011;31738;50.188;8.524;2023-01-26T08:31:06;15.00;;;7.18;;
46006;SDS011;31738;50.188;8.524;2023-01-26T08:33:35;12.35;;;6.93;;
46006;SDS011;31738;50.188;8.524;2023-01-26T08:36:05;13.10;;;6.80;;
46006;SDS011;31738;50.188;8.524;2023-01-26T08:38:33;13.50;;;7.38;;
46006;SDS011;31738;50.188;8.524;2023-01-26T08:42:05;12.57;;;6.40;;
46006;SDS011;31738;50.188;8.524;2023-01-26T08:44:30;16.85;;;7.30;;
46006;SDS011;31738;50.188;8.524;2023-01-26T08:47:05;13.10;;;7.05;;
46006;SDS011;31738;50.188;8.524;2023-01-26T08:49:52;11.20;;;6.63;;
46006;SDS011;31738;50.188;8.524;2023-01-26T08:52:18;13.93;;;7.63;;
46006;SDS011;31738;50.188;8.524;2023-01-26T08:54:46;14.63;;;6.97;;
46006;SDS011;31738;50.188;8.524;2023-01-26T08:57:11;13.40;;;7.55;;
46006;SDS011;31738;50.188;8.524;2023-01-26T08:59:36;13.10;;;7.30;;
46006;SDS011;31738;50.188;8.524;2023-01-26T09:02:02;15.23;;;7.75;;
46006;SDS011;31738;50.188;8.524;2023-01-26T09:04:27;12.68;;;7.30;;
46006;SDS011;31738;50.188;8.524;2023-01-26T09:06:53;13.90;;;7.45;;
46006;SDS011;31738;50.188;8.524;2023-01-26T09:09:18;13.57;;;7.60;;
46006;SDS011;31738;50.188;8.524;2023-01-26T09:11:44;13.93;;;7.22;;
46006;SDS011;31738;50.188;8.524;2023-01-26T09:14:09;14.90;;;7.32;;
46006;SDS011;31738;50.188;8.524;2023-01-26T09:16:35;15.73;;;8.30;;
46006;SDS011;31738;50.188;8.524;2023-01-26T09:19:00;14.05;;;7.47;;
46006;SDS011;31738;50.188;8.524;2023-01-26T09:21:25;16.90;;;7.82;;
46006;SDS011;31738;50.188;8.524;2023-01-26T09:23:51;17.33;;;8.60;;
46006;SDS011;31738;50.188;8.524;2023-01-26T09:26:16;18.55;;;9.40;;
46006;SDS011;31738;50.188;8.524;2023-01-26T09:28:42;16.83;;;8.52;;
46006;SDS011;31738;50.188;8.524;2023-01-26T09:31:08;19.95;;;9.45;;
46006;SDS011;31738;50.188;8.524;2023-01-26T09:33:35;18.27;;;9.45;;
46006;SDS011;31738;50.188;8.524;2023-01-26T09:36:02;17.83;;;9.45;;
46006;SDS011;31738;50.188;8.524;2023-01-26T09:38:32;18.58;;;8.50;;
46006;SDS011;31738;50.188;8.524;2023-01-26T09:41:05;15.40;;;8.65;;
46006;SDS011;31738;50.188;8.524;2023-01-26T09:43:48;17.38;;;8.40;;
46006;SDS011;31738;50.188;8.524;2023-01-26T09:49:08;18.48;;;9.18;;
46006;SDS011;31738;50.188;8.524;2023-01-26T09:51:38;18.15;;;9.18;;
46006;SDS011;31738;50.188;8.524;2023-01-26T09:54:18;18.50;;;9.75;;
46006;SDS011;31738;50.188;8.524;2023-01-26T09:56:59;17.83;;;9.02;;
46006;SDS011;31738;50.188;8.524;2023-01-26T09:59:28;19.13;;;9.77;;
46006;SDS011;31738;50.188;8.524;2023-01-26T10:02:03;18.98;;;9.45;;
46006;SDS011;31738;50.188;8.524;2023-01-26T10:04:45;19.08;;;8.95;;
46006;SDS011;31738;50.188;8.524;2023-01-26T10:07:14;20.27;;;9.55;;
46006;SDS011;31738;50.188;8.524;2023-01-26T10:09:50;18.42;;;9.07;;
46006;SDS011;31738;50.188;8.524;2023-01-26T10:12:25;19.27;;;10.32;;
46006;SDS011;31738;50.188;8.524;2023-01-26T10:14:57;20.73;;;10.18;;
46006;SDS011;31738;50.188;8.524;2023-01-26T10:17:37;17.38;;;9.45;;
46006;SDS011;31738;50.188;8.524;2023-01-26T10:23:08;20.27;;;10.35;;
46006;SDS011;31738;50.188;8.524;2023-01-26T10:25:40;22.90;;;10.35;;
46006;SDS011;31738;50.188;8.524;2023-01-26T10:30:45;26.00;;;11.63;;
46006;SDS011;31738;50.188;8.524;2023-01-26T10:35:58;25.90;;;12.75;;
46006;SDS011;31738;50.188;8.524;2023-01-26T10:43:41;23.52;;;11.75;;
46006;SDS011;31738;50.188;8.524;2023-01-26T10:51:35;22.63;;;11.70;;
46006;SDS011;31738;50.188;8.524;2023-01-26T10:54:21;22.58;;;11.18;;
46006;SDS011;31738;50.188;8.524;2023-01-26T10:56:49;21.10;;;10.18;;
46006;SDS011;31738;50.188;8.524;2023-01-26T11:04:41;21.40;;;9.90;;
46006;SDS011;31738;50.188;8.524;2023-01-26T11:07:28;19.70;;;9.52;;
46006;SDS011;31738;50.188;8.524;2023-01-26T11:10:00;14.23;;;7.88;;
46006;SDS011;31738;50.188;8.524;2023-01-26T11:12:41;13.93;;;7.43;;
46006;SDS011;31738;50.188;8.524;2023-01-26T11:15:14;13.18;;;7.63;;
46006;SDS011;31738;50.188;8.524;2023-01-26T11:18:02;14.75;;;7.18;;
46006;SDS011;31738;50.188;8.524;2023-01-26T11:32:10;14.25;;;6.70;;
46006;SDS011;31738;50.188;8.524;2023-01-26T11:34:56;15.32;;;6.68;;
46006;SDS011;31738;50.188;8.524;2023-01-26T11:37:55;10.52;;;5.05;;
46006;SDS011;31738;50.188;8.524;2023-01-26T11:51:41;12.82;;;6.22;;
46006;SDS011;31738;50.188;8.524;2023-01-26T11:54:37;19.33;;;8.18;;
46006;SDS011;31738;50.188;8.524;2023-01-26T12:00:17;21.27;;;8.75;;
46006;SDS011;31738;50.188;8.524;2023-01-26T12:03:04;19.02;;;8.05;;
46006;SDS011;31738;50.188;8.524;2023-01-26T12:05:42;16.80;;;7.30;;
46006;SDS011;31738;50.188;8.524;2023-01-26T12:11:03;18.00;;;8.65;;
46006;SDS011;31738;50.188;8.524;2023-01-26T12:19:09;19.38;;;8.48;;
46006;SDS011;31738;50.188;8.524;2023-01-26T12:21:41;21.33;;;8.98;;
46006;SDS011;31738;50.188;8.524;2023-01-26T12:24:10;17.73;;;7.78;;
46006;SDS011;31738;50.188;8.524;2023-01-26T12:26:44;18.15;;;8.52;;
46006;SDS011;31738;50.188;8.524;2023-01-26T12:32:12;19.48;;;9.52;;
46006;SDS011;31738;50.188;8.524;2023-01-26T12:34:39;22.40;;;9.13;;
46006;SDS011;31738;50.188;8.524;2023-01-26T12:39:34;23.85;;;9.95;;
46006;SDS011;31738;50.188;8.524;2023-01-26T12:42:18;22.50;;;10.20;;
46006;SDS011;31738;50.188;8.524;2023-01-26T12:44:55;22.88;;;9.70;;
46006;SDS011;31738;50.188;8.524;2023-01-26T12:50:26;21.90;;;9.65;;
46006;SDS011;31738;50.188;8.524;2023-01-26T12:53:04;22.90;;;9.15;;
46006;SDS011;31738;50.188;8.524;2023-01-26T12:55:39;23.00;;;9.68;;
46006;SDS011;31738;50.188;8.524;2023-01-26T12:58:13;24.50;;;9.98;;
46006;SDS011;31738;50.188;8.524;2023-01-26T13:01:03;24.65;;;10.02;;
46006;SDS011;31738;50.188;8.524;2023-01-26T13:03:33;21.60;;;9.38;;
46006;SDS011;31738;50.188;8.524;2023-01-26T13:11:00;23.73;;;9.57;;
46006;SDS011;31738;50.188;8.524;2023-01-26T13:13:31;23.92;;;9.00;;
46006;SDS011;31738;50.188;8.524;2023-01-26T13:18:50;18.83;;;8.35;;
46006;SDS011;31738;50.188;8.524;2023-01-26T13:24:40;19.20;;;8.68;;
46006;SDS011;31738;50.188;8.524;2023-01-26T13:26:58;20.23;;;8.02;;
46006;SDS011;31738;50.188;8.524;2023-01-26T13:31:51;21.73;;;9.23;;
46006;SDS011;31738;50.188;8.524;2023-01-26T13:37:19;21.48;;;8.80;;
46006;SDS011;31738;50.188;8.524;2023-01-26T13:39:54;20.35;;;8.50;;
46006;SDS011;31738;50.188;8.524;2023-01-26T13:42:28;20.00;;;8.23;;
46006;SDS011;31738;50.188;8.524;2023-01-26T13:45:00;22.80;;;8.85;;
46006;SDS011;31738;50.188;8.524;2023-01-26T13:47:38;18.90;;;8.68;;
46006;SDS011;31738;50.188;8.524;2023-01-26T13:53:01;23.35;;;8.88;;
46006;SDS011;31738;50.188;8.524;2023-01-26T13:55:54;21.10;;;9.27;;
46006;SDS011;31738;50.188;8.524;2023-01-26T13:58:22;23.45;;;9.82;;
46006;SDS011;31738;50.188;8.524;2023-01-26T14:03:43;26.17;;;9.73;;
46006;SDS011;31738;50.188;8.524;2023-01-26T14:06:10;28.48;;;10.63;;
46006;SDS011;31738;50.188;8.524;2023-01-26T14:08:38;27.20;;;11.25;;
46006;SDS011;31738;50.188;8.524;2023-01-26T14:11:04;31.42;;;12.38;;
46006;SDS011;31738;50.188;8.524;2023-01-26T14:13:41;28.52;;;11.85;;
46006;SDS011;31738;50.188;8.524;2023-01-26T14:16:18;28.42;;;11.05;;
46006;SDS011;31738;50.188;8.524;2023-01-26T14:18:49;29.65;;;11.57;;
46006;SDS011;31738;50.188;8.524;2023-01-26T14:21:19;26.45;;;10.98;;
46006;SDS011;31738;50.188;8.524;2023-01-26T14:23:52;29.77;;;11.82;;
46006;SDS011;31738;50.188;8.524;2023-01-26T14:28:54;28.45;;;11.70;;
46006;SDS011;31738;50.188;8.524;2023-01-26T14:31:23;29.90;;;12.23;;
46006;SDS011;31738;50.188;8.524;2023-01-26T14:33:51;32.60;;;12.05;;
46006;SDS011;31738;50.188;8.524;2023-01-26T14:36:21;35.00;;;12.18;;
46006;SDS011;31738;50.188;8.524;2023-01-26T14:38:49;29.73;;;11.88;;
46006;SDS011;31738;50.188;8.524;2023-01-26T14:41:18;28.10;;;11.50;;
46006;SDS011;31738;50.188;8.524;2023-01-26T14:43:48;29.52;;;11.98;;
46006;SDS011;31738;50.188;8.524;2023-01-26T14:46:16;27.23;;;10.75;;
46006;SDS011;31738;50.188;8.524;2023-01-26T14:48:50;30.08;;;11.40;;
46006;SDS011;31738;50.188;8.524;2023-01-26T14:51:22;25.58;;;11.40;;
46006;SDS011;31738;50.188;8.524;2023-01-26T14:53:51;35.03;;;12.50;;
46006;SDS011;31738;50.188;8.524;2023-01-26T14:56:21;38.25;;;13.45;;
46006;SDS011;31738;50.188;8.524;2023-01-26T14:58:51;31.77;;;12.00;;
46006;SDS011;31738;50.188;8.524;2023-01-26T15:01:19;32.25;;;11.95;;
46006;SDS011;31738;50.188;8.524;2023-01-26T15:03:47;35.35;;;13.35;;
46006;SDS011;31738;50.188;8.524;2023-01-26T15:06:19;35.67;;;13.18;;
46006;SDS011;31738;50.188;8.524;2023-01-26T15:09:01;35.08;;;12.95;;
46006;SDS011;31738;50.188;8.524;2023-01-26T15:11:40;34.92;;;13.40;;
46006;SDS011;31738;50.188;8.524;2023-01-26T15:14:32;32.33;;;13.00;;
46006;SDS011;31738;50.188;8.524;2023-01-26T15:17:01;35.55;;;13.23;;
46006;SDS011;31738;50.188;8.524;2023-01-26T15:19:30;30.30;;;12.63;;
46006;SDS011;31738;50.188;8.524;2023-01-26T15:21:58;33.10;;;14.02;;
46006;SDS011;31738;50.188;8.524;2023-01-26T15:24:33;37.92;;;14.77;;
46006;SDS011;31738;50.188;8.524;2023-01-26T15:27:05;37.75;;;14.40;;
46006;SDS011;31738;50.188;8.524;2023-01-26T15:29:31;39.17;;;14.60;;
46006;SDS011;31738;50.188;8.524;2023-01-26T15:31:58;39.58;;;14.45;;
46006;SDS011;31738;50.188;8.524;2023-01-26T15:36:57;43.00;;;15.27;;
46006;SDS011;31738;50.188;8.524;2023-01-26T15:39:24;40.55;;;14.05;;
46006;SDS011;31738;50.188;8.524;2023-01-26T15:42:01;38.45;;;14.82;;
46006;SDS011;31738;50.188;8.524;2023-01-26T15:44:38;42.35;;;15.38;;
46006;SDS011;31738;50.188;8.524;2023-01-26T15:47:07;44.40;;;15.95;;
46006;SDS011;31738;50.188;8.524;2023-01-26T15:52:22;42.47;;;15.48;;
46006;SDS011;31738;50.188;8.524;2023-01-26T15:54:52;38.78;;;14.68;;
46006;SDS011;31738;50.188;8.524;2023-01-26T15:57:20;43.20;;;16.02;;
46006;SDS011;31738;50.188;8.524;2023-01-26T15:59:52;38.90;;;14.20;;
46006;SDS011;31738;50.188;8.524;2023-01-26T16:02:26;40.95;;;15.30;;
46006;SDS011;31738;50.188;8.524;2023-01-26T16:08:50;37.58;;;15.18;;
46006;SDS011;31738;50.188;8.524;2023-01-26T16:11:17;40.17;;;15.10;;
46006;SDS011;31738;50.188;8.524;2023-01-26T16:13:43;41.88;;;15.00;;
46006;SDS011;31738;50.188;8.524;2023-01-26T16:16:12;43.45;;;16.05;;
46006;SDS011;31738;50.188;8.524;2023-01-26T16:18:40;42.72;;;15.02;;
46006;SDS011;31738;50.188;8.524;2023-01-26T16:21:20;39.08;;;15.25;;
46006;SDS011;31738;50.188;8.524;2023-01-26T16:23:47;42.25;;;15.20;;
46006;SDS011;31738;50.188;8.524;2023-01-26T16:26:14;41.95;;;16.13;;
46006;SDS011;31738;50.188;8.524;2023-01-26T16:28:59;46.00;;;16.17;;
46006;SDS011;31738;50.188;8.524;2023-01-26T16:34:52;43.72;;;15.98;;
46006;SDS011;31738;50.188;8.524;2023-01-26T16:37:17;47.83;;;18.27;;
46006;SDS011;31738;50.188;8.524;2023-01-26T16:39:42;50.15;;;17.17;;
46006;SDS011;31738;50.188;8.524;2023-01-26T16:42:09;47.15;;;17.33;;
46006;SDS011;31738;50.188;8.524;2023-01-26T16:44:59;43.75;;;16.80;;
46006;SDS011;31738;50.188;8.524;2023-01-26T16:47:24;45.65;;;17.02;;
46006;SDS011;31738;50.188;8.524;2023-01-26T16:49:50;40.55;;;16.63;;
46006;SDS011;31738;50.188;8.524;2023-01-26T16:52:15;45.58;;;17.85;;
46006;SDS011;31738;50.188;8.524;2023-01-26T16:54:41;49.17;;;17.15;;
46006;SDS011;31738;50.188;8.524;2023-01-26T16:57:07;45.08;;;17.00;;
46006;SDS011;31738;50.188;8.524;2023-01-26T16:59:33;51.78;;;18.23;;
46006;SDS011;31738;50.188;8.524;2023-01-26T17:01:58;48.58;;;18.15;;
46006;SDS011;31738;50.188;8.524;2023-01-26T17:04:24;48.33;;;18.08;;
46006;SDS011;31738;50.188;8.524;2023-01-26T17:06:49;39.22;;;15.73;;
46006;SDS011;31738;50.188;8.524;2023-01-26T17:12:05;48.60;;;17.05;;
46006;SDS011;31738;50.188;8.524;2023-01-26T17:14:31;46.97;;;16.75;;
46006;SDS011;31738;50.188;8.524;2023-01-26T17:16:57;46.42;;;16.75;;
46006;SDS011;31738;50.188;8.524;2023-01-26T17:19:22;47.05;;;17.05;;
46006;SDS011;31738;50.188;8.524;2023-01-26T17:21:48;47.40;;;17.25;;
46006;SDS011;31738;50.188;8.524;2023-01-26T17:24:13;49.30;;;17.92;;
46006;SDS011;31738;50.188;8.524;2023-01-26T17:26:38;48.92;;;17.60;;
46006;SDS011;31738;50.188;8.524;2023-01-26T17:29:05;48.80;;;17.35;;
46006;SDS011;31738;50.188;8.524;2023-01-26T17:31:30;48.60;;;17.65;;
46006;SDS011;31738;50.188;8.524;2023-01-26T17:33:56;51.25;;;18.33;;